Time,TemperatureF,DewpointF,PressureIn,WindDirection,WindDirectionDegrees,WindSpeedMPH,WindSpeedGustMPH,Humidity,HourlyPrecipIn,Conditions,Clouds,dailyrainin,SoftwareType,DateUTC
2013-12-16 00:01:00,47.1,18.0,30.09,NW,323,3.5,3.7,31,0.00,-RA,OVC,0.00,WeatherDisplay:10.37,2013-12-16 07:01:00,
2013-12-16 00:06:00,46.5,17.4,30.09,NE,37,4.6,4.6,31,0.00,-RA,OVC,0.00,WeatherDisplay:10.37,2013-12-16 07:06:00,
2013-12-16 00:11:00,46.8,17.7,30.09,NE,38,3.5,3.5,31,0.00,-RA,OVC,0.00,WeatherDisplay:10.37,2013-12-16 07:11:00,
2013-12-16 00:16:00,46.9,18.5,30.10,East,90,4.6,4.6,32,0.00,-RA,OVC,0.00,WeatherDisplay:10.37,2013-12-16 07:16:00,
2013-12-16 00:21:00,46.5,18.2,30.10,East,90,1.1,0.0,32,0.00,-RA,OVC,0.00,WeatherDisplay:10.37,2013-12-16 07:21:00,
2013-12-16 00:26:00,46.5,17.4,30.10,North,5,5.8,5.8,31,0.00,-RA,OVC,0.00,WeatherDisplay:10.37,2013-12-16 07:26:00,
2013-12-16 00:31:00,47.7,17.7,30.10,NNE,13,3.5,3.5,30,0.00,-RA,OVC,0.00,WeatherDisplay:10.37,2013-12-16 07:31:00,
2013-12-16 00:36:00,48.3,17.5,30.10,NNE,13,3.0,3.0,29,0.00,-RA,OVC,0.00,WeatherDisplay:10.37,2013-12-16 07:36:00,
2013-12-16 00:41:00,48.1,17.3,30.10,East,100,0.0,0.0,29,0.00,-RA,OVC,0.00,WeatherDisplay:10.37,2013-12-16 07:41:00,
2013-12-16 00:46:00,47.7,17.7,30.10,East,100,0.0,0.0,30,0.00,-RA,OVC,0.00,WeatherDisplay:10.37,2013-12-16 07:46:00,
2013-12-16 00:51:00,47.6,18.4,30.10,ESE,112,2.3,2.3,31,0.00,-RA,OVC,0.00,WeatherDisplay:10.37,2013-12-16 07:51:00,
2013-12-16 00:56:00,46.9,17.8,30.10,ESE,113,3.5,3.5,31,0.00,-RA,OVC,0.00,WeatherDisplay:10.37,2013-12-16 07:56:00,
2013-12-16 01:01:00,46.4,16.6,30.10,SE,136,0.0,0.7,30,0.00,-RA,OVC,0.00,WeatherDisplay:10.37,2013-12-16 08:01:00,
2013-12-16 01:06:00,46.7,18.4,30.10,NNW,346,5.8,5.8,32,0.00,-RA,OVC,0.00,WeatherDisplay:10.37,2013-12-16 08:06:00,
2013-12-16 01:11:00,46.0,17.0,30.10,ESE,119,4.6,4.6,31,0.00,-RA,OVC,0.00,WeatherDisplay:10.37,2013-12-16 08:11:00,
2013-12-16 01:16:00,47.1,17.2,30.10,ESE,113,2.3,2.3,30,0.00,-RA,OVC,0.00,WeatherDisplay:10.37,2013-12-16 08:16:00,
2013-12-16 01:21:00,48.2,16.6,30.10,ESE,112,4.6,4.6,28,0.00,-RA,OVC,0.00,WeatherDisplay:10.37,2013-12-16 08:21:00,
2013-12-16 01:26:00,49.3,16.7,30.10,ESE,111,3.5,3.5,27,0.00,-RA,OVC,0.00,WeatherDisplay:10.37,2013-12-16 08:26:00,
2013-12-16 01:31:00,50.3,17.5,30.10,ESE,110,3.5,3.5,27,0.00,-RA,OVC,0.00,WeatherDisplay:10.37,2013-12-16 08:31:00,
2013-12-16 01:36:00,50.9,17.2,30.10,SE,145,1.1,0.0,26,0.00,-RA,OVC,0.00,WeatherDisplay:10.37,2013-12-16 08:36:00,
2013-12-16 01:41:00,50.6,17.8,30.10,SE,145,0.0,0.0,27,0.00,-RA,OVC,0.00,WeatherDisplay:10.37,2013-12-16 08:41:00,
2013-12-16 01:46:00,50.0,18.1,30.10,ESE,104,3.5,3.5,28,0.00,-RA,OVC,0.00,WeatherDisplay:10.37,2013-12-16 08:46:00,
2013-12-16 01:51:00,49.1,17.3,30.10,ESE,104,2.3,2.3,28,0.00,-RA,OVC,0.00,WeatherDisplay:10.37,2013-12-16 08:51:00,
2013-12-16 01:56:00,47.9,18.7,30.10,ESE,104,2.3,2.3,31,0.00,-RA,OVC,0.00,WeatherDisplay:10.37,2013-12-16 08:56:00,
2013-12-16 02:01:00,46.8,17.7,30.10,East,101,3.5,3.5,31,0.00,-RA,OVC,0.00,WeatherDisplay:10.37,2013-12-16 09:01:00,
2013-12-16 02:06:00,45.9,17.7,30.10,East,101,0.0,0.0,32,0.00,-RA,OVC,0.00,WeatherDisplay:10.37,2013-12-16 09:06:00,
2013-12-16 02:11:00,45.5,18.0,30.10,ESE,111,6.9,6.9,33,0.00,-RA,OVC,0.00,WeatherDisplay:10.37,2013-12-16 09:11:00,
2013-12-16 02:16:00,45.8,19.0,30.10,ESE,111,2.3,2.3,34,0.00,-RA,OVC,0.00,WeatherDisplay:10.37,2013-12-16 09:16:00,
2013-12-16 02:21:00,45.1,19.0,30.10,ESE,111,4.6,4.6,35,0.00,-RA,OVC,0.00,WeatherDisplay:10.37,2013-12-16 09:21:00,
2013-12-16 02:26:00,45.4,18.6,30.10,ESE,103,6.9,6.9,34,0.00,-RA,OVC,0.00,WeatherDisplay:10.37,2013-12-16 09:26:00,
2013-12-16 02:31:00,46.7,19.1,30.10,East,84,3.5,3.5,33,0.00,-RA,OVC,0.00,WeatherDisplay:10.37,2013-12-16 09:31:00,
2013-12-16 02:36:00,46.9,19.3,30.10,East,84,1.1,1.1,33,0.00,-RA,OVC,0.00,WeatherDisplay:10.37,2013-12-16 09:36:00,
2013-12-16 02:41:00,46.4,19.5,30.10,East,84,1.1,1.1,34,0.00,-RA,OVC,0.00,WeatherDisplay:10.37,2013-12-16 09:41:00,
2013-12-16 02:46:00,46.0,19.2,30.10,East,84,0.0,0.0,34,0.00,-RA,OVC,0.00,WeatherDisplay:10.37,2013-12-16 09:46:00,
2013-12-16 02:51:00,45.7,18.9,30.10,East,84,0.0,0.0,34,0.00,-RA,OVC,0.00,WeatherDisplay:10.37,2013-12-16 09:51:00,
2013-12-16 02:56:00,45.9,19.1,30.10,ESE,122,1.1,1.1,34,0.00,-RA,OVC,0.00,WeatherDisplay:10.37,2013-12-16 09:56:00,
2013-12-16 03:01:00,46.9,19.3,30.10,ESE,121,11.5,11.5,33,0.00,-RA,OVC,0.00,WeatherDisplay:10.37,2013-12-16 10:01:00,
2013-12-16 03:06:00,49.5,19.3,30.10,ESE,111,9.2,9.2,30,0.00,-RA,OVC,0.00,WeatherDisplay:10.37,2013-12-16 10:06:00,
2013-12-16 03:11:00,50.8,19.6,30.10,ESE,120,5.8,5.8,29,0.00,-RA,OVC,0.00,WeatherDisplay:10.37,2013-12-16 10:11:00,
2013-12-16 03:16:00,51.0,19.8,30.10,ESE,115,4.6,4.6,29,0.00,-RA,OVC,0.00,WeatherDisplay:10.37,2013-12-16 10:16:00,
2013-12-16 03:21:00,50.9,20.5,30.10,ESE,117,6.9,6.9,30,0.00,-RA,OVC,0.00,WeatherDisplay:10.37,2013-12-16 10:21:00,
2013-12-16 03:26:00,51.2,20.0,30.10,NE,49,10.4,10.4,29,0.00,-RA,OVC,0.00,WeatherDisplay:10.37,2013-12-16 10:26:00,
2013-12-16 03:31:00,51.6,19.5,30.10,East,90,11.5,11.5,28,0.00,-RA,OVC,0.00,WeatherDisplay:10.37,2013-12-16 10:31:00,
2013-12-16 03:36:00,52.2,20.0,30.10,East,101,17.3,17.3,28,0.00,-RA,OVC,0.00,WeatherDisplay:10.37,2013-12-16 10:36:00,
2013-12-16 03:41:00,52.3,20.1,30.10,SE,142,10.0,10.0,28,0.00,-RA,OVC,0.00,WeatherDisplay:10.37,2013-12-16 10:41:00,
2013-12-16 03:46:00,52.3,20.1,30.10,SE,132,10.4,10.4,28,0.00,-RA,OVC,0.00,WeatherDisplay:10.37,2013-12-16 10:46:00,
2013-12-16 03:51:00,52.3,20.1,30.10,ESE,116,11.5,11.5,28,0.00,-RA,OVC,0.00,WeatherDisplay:10.37,2013-12-16 10:51:00,
2013-12-16 03:56:00,52.6,19.5,30.10,ESE,123,15.0,15.0,27,0.00,-RA,OVC,0.00,WeatherDisplay:10.37,2013-12-16 10:56:00,
2013-12-16 04:01:00,53.1,19.1,30.10,SE,141,19.6,19.6,26,0.00,-RA,OVC,0.00,WeatherDisplay:10.37,2013-12-16 11:01:00,
2013-12-16 04:06:00,53.1,19.1,30.10,SE,129,6.0,6.0,26,0.00,-RA,OVC,0.00,WeatherDisplay:10.37,2013-12-16 11:06:00,
2013-12-16 04:11:00,53.0,19.0,30.10,SE,130,10.4,10.4,26,0.00,-RA,OVC,0.00,WeatherDisplay:10.37,2013-12-16 11:11:00,
2013-12-16 04:16:00,53.0,19.0,30.10,ESE,123,11.5,11.5,26,0.00,-RA,OVC,0.00,WeatherDisplay:10.37,2013-12-16 11:16:00,
2013-12-16 04:21:00,52.8,18.8,30.10,ESE,109,9.2,9.2,26,0.00,-RA,OVC,0.00,WeatherDisplay:10.37,2013-12-16 11:21:00,
2013-12-16 04:26:00,53.1,18.2,30.10,SE,140,11.5,11.5,25,0.00,-RA,OVC,0.00,WeatherDisplay:10.37,2013-12-16 11:26:00,
2013-12-16 04:31:00,53.2,18.2,30.10,ESE,119,11.5,11.5,25,0.00,-RA,OVC,0.00,WeatherDisplay:10.37,2013-12-16 11:31:00,
2013-12-16 04:36:00,53.1,18.2,30.10,ESE,107,3.5,3.5,25,0.00,-RA,OVC,0.00,WeatherDisplay:10.37,2013-12-16 11:36:00,
2013-12-16 04:41:00,52.8,17.9,30.10,SE,146,11.5,11.5,25,0.00,-RA,OVC,0.00,WeatherDisplay:10.37,2013-12-16 11:41:00,
2013-12-16 04:46:00,52.7,17.8,30.10,SSE,150,8.1,8.1,25,0.00,-RA,OVC,0.00,WeatherDisplay:10.37,2013-12-16 11:46:00,
2013-12-16 04:51:00,52.5,17.6,30.10,SE,135,16.1,16.1,25,0.00,-RA,OVC,0.00,WeatherDisplay:10.37,2013-12-16 11:51:00,
2013-12-16 04:56:00,52.5,18.6,30.10,SSE,160,12.7,12.7,26,0.00,-RA,OVC,0.00,WeatherDisplay:10.37,2013-12-16 11:56:00,
2013-12-16 05:01:00,52.6,18.6,30.10,SE,128,19.6,19.6,26,0.00,-RA,OVC,0.00,WeatherDisplay:10.37,2013-12-16 12:01:00,
2013-12-16 05:06:00,52.7,18.7,30.10,SE,140,12.7,12.7,26,0.00,-RA,OVC,0.00,WeatherDisplay:10.37,2013-12-16 12:06:00,
2013-12-16 05:11:00,52.7,18.7,30.10,SE,146,19.0,19.0,26,0.00,-RA,OVC,0.00,WeatherDisplay:10.37,2013-12-16 12:11:00,
2013-12-16 05:16:00,52.8,18.8,30.10,SE,136,18.4,18.4,26,0.00,-RA,OVC,0.00,WeatherDisplay:10.37,2013-12-16 12:16:00,
2013-12-16 05:21:00,52.8,18.8,30.10,SE,137,17.3,17.3,26,0.00,-RA,OVC,0.00,WeatherDisplay:10.37,2013-12-16 12:21:00,
2013-12-16 05:26:00,52.6,18.6,30.10,SE,131,13.0,13.0,26,0.00,-RA,OVC,0.00,WeatherDisplay:10.37,2013-12-16 12:26:00,
2013-12-16 05:31:00,52.5,18.6,30.10,SSE,167,11.5,11.5,26,0.00,-RA,OVC,0.00,WeatherDisplay:10.37,2013-12-16 12:31:00,
2013-12-16 05:36:00,52.5,19.4,30.10,SSE,161,10.4,10.4,27,0.00,-RA,OVC,0.00,WeatherDisplay:10.37,2013-12-16 12:36:00,
2013-12-16 05:41:00,52.3,19.3,30.10,ESE,116,9.2,9.2,27,0.00,-RA,OVC,0.00,WeatherDisplay:10.37,2013-12-16 12:41:00,
2013-12-16 05:46:00,52.1,19.1,30.10,SE,146,10.4,10.4,27,0.00,-RA,OVC,0.00,WeatherDisplay:10.37,2013-12-16 12:46:00,
2013-12-16 05:51:00,52.1,19.1,30.10,East,90,11.5,11.5,27,0.00,-RA,OVC,0.00,WeatherDisplay:10.37,2013-12-16 12:51:00,
2013-12-16 05:56:00,52.0,19.0,30.10,ESE,122,8.1,8.1,27,0.00,-RA,OVC,0.00,WeatherDisplay:10.37,2013-12-16 12:56:00,
2013-12-16 06:01:00,51.7,19.6,30.10,SSE,165,10.4,10.4,28,0.00,-RA,OVC,0.00,WeatherDisplay:10.37,2013-12-16 13:01:00,
2013-12-16 06:06:00,52.1,19.9,30.10,East,101,18.4,18.4,28,0.00,-RA,OVC,0.00,WeatherDisplay:10.37,2013-12-16 13:06:00,
2013-12-16 06:11:00,52.3,19.3,30.10,SSE,157,21.9,21.9,27,0.00,-RA,OVC,0.00,WeatherDisplay:10.37,2013-12-16 13:11:00,
2013-12-16 06:16:00,52.2,20.0,30.10,SE,127,10.4,10.4,28,0.00,-RA,OVC,0.00,WeatherDisplay:10.37,2013-12-16 13:16:00,
2013-12-16 06:21:00,52.0,19.9,30.10,South,171,4.6,4.6,28,0.00,-RA,OVC,0.00,WeatherDisplay:10.37,2013-12-16 13:21:00,
2013-12-16 06:26:00,51.8,19.7,30.10,ESE,121,7.0,7.0,28,0.00,-RA,OVC,0.00,WeatherDisplay:10.37,2013-12-16 13:26:00,
2013-12-16 06:31:00,51.9,19.8,30.10,ESE,113,5.8,5.8,28,0.00,-RA,OVC,0.00,WeatherDisplay:10.37,2013-12-16 13:31:00,
2013-12-16 06:36:00,51.8,19.7,30.10,ESE,105,4.6,4.6,28,0.00,-RA,OVC,0.00,WeatherDisplay:10.37,2013-12-16 13:36:00,
2013-12-16 06:41:00,51.4,19.3,30.10,ESE,119,5.8,5.8,28,0.00,-RA,OVC,0.00,WeatherDisplay:10.37,2013-12-16 13:41:00,
2013-12-16 06:46:00,51.2,20.0,30.10,ESE,113,6.0,6.0,29,0.00,-RA,OVC,0.00,WeatherDisplay:10.37,2013-12-16 13:46:00,
2013-12-16 06:51:00,51.2,20.0,30.10,ESE,121,4.6,4.6,29,0.00,-RA,OVC,0.00,WeatherDisplay:10.37,2013-12-16 13:51:00,
2013-12-16 06:56:00,51.1,19.1,30.10,SE,129,6.9,6.9,28,0.00,-RA,OVC,0.00,WeatherDisplay:10.37,2013-12-16 13:56:00,
2013-12-16 07:01:00,51.0,19.8,30.10,ESE,104,4.6,4.6,29,0.00,-RA,OVC,0.00,WeatherDisplay:10.37,2013-12-16 14:01:00,
2013-12-16 07:06:00,50.8,19.6,30.10,SE,127,9.0,9.0,29,0.00,-RA,OVC,0.00,WeatherDisplay:10.37,2013-12-16 14:06:00,
2013-12-16 07:11:00,50.9,19.7,30.10,SE,125,25.3,25.3,29,0.00,-RA,OVC,0.00,WeatherDisplay:10.37,2013-12-16 14:11:00,
2013-12-16 07:16:00,51.9,18.9,30.10,ESE,120,20.7,20.7,27,0.00,-RA,OVC,0.00,WeatherDisplay:10.37,2013-12-16 14:16:00,
2013-12-16 07:21:00,52.4,18.5,30.10,ESE,107,17.3,17.3,26,0.00,-RA,OVC,0.00,WeatherDisplay:10.37,2013-12-16 14:21:00,
2013-12-16 07:26:00,52.7,18.7,30.10,SE,128,17.3,17.3,26,0.00,-RA,OVC,0.00,WeatherDisplay:10.37,2013-12-16 14:26:00,
2013-12-16 07:31:00,52.8,17.9,30.10,ESE,117,6.9,6.9,25,0.00,-RA,OVC,0.00,WeatherDisplay:10.37,2013-12-16 14:31:00,
2013-12-16 07:36:00,52.7,17.8,30.10,SSE,159,13.8,13.8,25,0.00,-RA,OVC,0.00,WeatherDisplay:10.37,2013-12-16 14:36:00,
2013-12-16 07:41:00,52.8,17.9,30.10,SSE,160,16.1,16.1,25,0.00,-RA,OVC,0.00,WeatherDisplay:10.37,2013-12-16 14:41:00,
2013-12-16 07:46:00,53.0,18.1,30.10,SE,143,6.9,6.9,25,0.00,-RA,OVC,0.00,WeatherDisplay:10.37,2013-12-16 14:46:00,
2013-12-16 07:51:00,52.9,18.0,30.10,SE,126,4.6,4.6,25,0.00,-RA,OVC,0.00,WeatherDisplay:10.37,2013-12-16 14:51:00,
2013-12-16 07:56:00,52.7,16.9,30.10,ESE,110,17.0,17.0,24,0.00,-RA,OVC,0.00,WeatherDisplay:10.37,2013-12-16 14:56:00,
2013-12-16 08:01:00,53.1,16.2,30.10,ESE,113,11.5,11.5,23,0.00,-RA,OVC,0.00,WeatherDisplay:10.37,2013-12-16 15:01:00,
2013-12-16 08:06:00,53.4,16.5,30.10,East,86,10.4,10.4,23,0.00,-RA,OVC,0.00,WeatherDisplay:10.37,2013-12-16 15:06:00,
2013-12-16 08:11:00,53.7,15.7,30.10,SE,129,9.2,9.2,22,0.00,-RA,OVC,0.00,WeatherDisplay:10.37,2013-12-16 15:11:00,
2013-12-16 08:16:00,54.2,15.1,30.10,SE,137,18.4,18.4,21,0.00,-RA,OVC,0.00,WeatherDisplay:10.37,2013-12-16 15:16:00,
2013-12-16 08:21:00,54.3,15.1,30.10,ESE,122,10.4,10.4,21,0.00,-RA,OVC,0.00,WeatherDisplay:10.37,2013-12-16 15:21:00,
2013-12-16 08:26:00,54.5,15.3,30.10,ESE,111,17.3,17.3,21,0.00,-RA,OVC,0.00,WeatherDisplay:10.37,2013-12-16 15:26:00,
2013-12-16 08:31:00,54.7,15.5,30.10,SE,136,19.6,19.6,21,0.00,-RA,OVC,0.00,WeatherDisplay:10.37,2013-12-16 15:31:00,
2013-12-16 08:36:00,54.9,15.6,30.10,SE,134,11.5,11.5,21,0.00,-RA,OVC,0.00,WeatherDisplay:10.37,2013-12-16 15:36:00,
2013-12-16 08:41:00,55.1,14.7,30.10,SE,132,13.8,13.8,20,0.00,-RA,OVC,0.00,WeatherDisplay:10.37,2013-12-16 15:41:00,
2013-12-16 08:46:00,55.3,14.8,30.10,ESE,119,10.4,10.4,20,0.00,-RA,OVC,0.00,WeatherDisplay:10.37,2013-12-16 15:46:00,
2013-12-16 08:51:00,55.3,14.8,30.10,ESE,108,10.4,10.4,20,0.00,-RA,OVC,0.00,WeatherDisplay:10.37,2013-12-16 15:51:00,
2013-12-16 08:56:00,55.5,13.8,30.10,SE,136,11.5,11.5,19,0.00,-RA,OVC,0.00,WeatherDisplay:10.37,2013-12-16 15:56:00,
2013-12-16 09:01:00,55.6,13.9,30.10,ENE,75,17.3,17.3,19,0.00,-RA,OVC,0.00,WeatherDisplay:10.37,2013-12-16 16:01:00,
2013-12-16 09:06:00,55.8,15.3,30.10,ENE,66,9.2,9.2,20,0.00,-RA,OVC,0.00,WeatherDisplay:10.37,2013-12-16 16:06:00,
2013-12-16 09:11:00,55.9,15.3,30.10,ESE,119,11.5,11.5,20,0.00,-RA,OVC,0.00,WeatherDisplay:10.37,2013-12-16 16:11:00,
2013-12-16 09:16:00,56.0,15.4,30.10,ESE,108,19.6,19.6,20,0.00,-RA,OVC,0.00,WeatherDisplay:10.37,2013-12-16 16:16:00,
2013-12-16 09:21:00,56.1,15.5,30.10,ESE,109,16.1,16.1,20,0.00,-RA,OVC,0.00,WeatherDisplay:10.37,2013-12-16 16:21:00,
2013-12-16 09:26:00,56.2,15.6,30.10,East,101,9.2,9.2,20,0.00,-RA,OVC,0.00,WeatherDisplay:10.37,2013-12-16 16:26:00,
2013-12-16 09:31:00,56.4,15.8,30.10,East,98,16.1,16.1,20,0.00,-RA,OVC,0.00,WeatherDisplay:10.37,2013-12-16 16:31:00,
2013-12-16 09:36:00,56.6,17.1,30.10,SSE,153,8.1,8.1,21,0.00,-RA,OVC,0.00,WeatherDisplay:10.37,2013-12-16 16:36:00,
2013-12-16 09:41:00,56.8,17.2,30.10,SSE,152,11.5,11.5,21,0.00,-RA,OVC,0.00,WeatherDisplay:10.37,2013-12-16 16:41:00,
2013-12-16 09:46:00,57.1,17.5,30.10,SE,135,15.0,15.0,21,0.00,-RA,OVC,0.00,WeatherDisplay:10.37,2013-12-16 16:46:00,
2013-12-16 09:51:00,57.4,17.7,30.10,ENE,57,9.2,9.2,21,0.00,-RA,OVC,0.00,WeatherDisplay:10.37,2013-12-16 16:51:00,
2013-12-16 09:56:00,57.8,18.1,30.16,ESE,105,9.2,9.2,21,0.00,-RA,OVC,0.00,WeatherDisplay:10.37,2013-12-16 16:56:00,
2013-12-16 10:01:00,57.9,17.0,30.16,ESE,104,10.4,10.4,20,0.00,-RA,OVC,0.00,WeatherDisplay:10.37,2013-12-16 17:01:00,
2013-12-16 10:06:00,57.9,17.0,30.16,SSE,165,3.5,3.5,20,0.00,-RA,OVC,0.00,WeatherDisplay:10.37,2013-12-16 17:06:00,
2013-12-16 10:11:00,58.0,17.1,30.16,South,187,10.4,10.4,20,0.00,-RA,OVC,0.00,WeatherDisplay:10.37,2013-12-16 17:11:00,
2013-12-16 10:16:00,58.1,16.0,30.16,South,186,10.4,10.4,19,0.00,-RA,OVC,0.00,WeatherDisplay:10.37,2013-12-16 17:16:00,
2013-12-16 10:21:00,58.3,16.2,30.16,ESE,123,3.5,3.5,19,0.00,-RA,OVC,0.00,WeatherDisplay:10.37,2013-12-16 17:21:00,
2013-12-16 10:26:00,58.6,15.2,30.16,NE,47,13.8,13.8,18,0.00,-RA,OVC,0.00,WeatherDisplay:10.37,2013-12-16 17:26:00,
2013-12-16 10:31:00,58.7,15.2,30.16,ESE,115,9.2,9.2,18,0.00,-RA,OVC,0.00,WeatherDisplay:10.37,2013-12-16 17:31:00,
2013-12-16 10:36:00,58.7,16.5,30.16,ESE,121,5.8,5.8,19,0.00,-RA,OVC,0.00,WeatherDisplay:10.37,2013-12-16 17:36:00,
2013-12-16 10:41:00,58.7,15.2,30.16,ESE,113,11.5,11.5,18,0.00,-RA,OVC,0.00,WeatherDisplay:10.37,2013-12-16 17:41:00,
2013-12-16 10:46:00,58.8,15.3,30.16,East,99,16.1,16.1,18,0.00,-RA,OVC,0.00,WeatherDisplay:10.37,2013-12-16 17:46:00,
2013-12-16 10:51:00,59.2,15.7,30.16,ESE,122,13.8,13.8,18,0.00,-RA,OVC,0.00,WeatherDisplay:10.37,2013-12-16 17:51:00,
2013-12-16 10:56:00,59.5,15.9,30.16,SE,136,4.6,4.6,18,0.00,-RA,OVC,0.00,WeatherDisplay:10.37,2013-12-16 17:56:00,
2013-12-16 11:01:00,59.6,16.0,30.16,East,95,12.7,12.7,18,0.00,-RA,OVC,0.00,WeatherDisplay:10.37,2013-12-16 18:01:00,
2013-12-16 11:06:00,59.8,14.8,30.16,East,86,9.2,9.2,17,0.00,-RA,OVC,0.00,WeatherDisplay:10.37,2013-12-16 18:06:00,
2013-12-16 11:11:00,60.1,15.1,30.16,East,80,11.5,11.5,17,0.00,-RA,OVC,0.00,WeatherDisplay:10.37,2013-12-16 18:11:00,
2013-12-16 11:16:00,60.3,15.2,30.16,SE,127,16.1,16.1,17,0.00,-RA,OVC,0.00,WeatherDisplay:10.37,2013-12-16 18:16:00,
2013-12-16 11:21:00,60.5,15.4,30.16,SE,135,11.5,11.5,17,0.00,-RA,OVC,0.00,WeatherDisplay:10.37,2013-12-16 18:21:00,
2013-12-16 11:26:00,60.8,15.6,30.16,South,191,2.3,2.3,17,0.00,-RA,OVC,0.00,WeatherDisplay:10.37,2013-12-16 18:26:00,
2013-12-16 11:31:00,61.0,15.8,30.16,SW,219,3.5,3.5,17,0.00,-RA,OVC,0.00,WeatherDisplay:10.37,2013-12-16 18:31:00,
2013-12-16 11:36:00,61.1,14.5,30.16,West,274,6.9,6.9,16,0.00,-RA,OVC,0.00,WeatherDisplay:10.37,2013-12-16 18:36:00,
2013-12-16 11:41:00,61.2,16.0,30.16,WSW,254,4.6,4.6,17,0.00,-RA,OVC,0.00,WeatherDisplay:10.37,2013-12-16 18:41:00,
2013-12-16 11:46:00,61.5,14.8,30.16,West,273,4.6,4.6,16,0.00,-RA,OVC,0.00,WeatherDisplay:10.37,2013-12-16 18:46:00,
2013-12-16 11:51:00,61.5,14.8,30.16,SSW,202,5.8,5.8,16,0.00,-RA,OVC,0.00,WeatherDisplay:10.37,2013-12-16 18:51:00,
2013-12-16 11:56:00,61.3,13.2,30.16,SSW,207,6.9,6.9,15,0.00,-RA,OVC,0.00,WeatherDisplay:10.37,2013-12-16 18:56:00,
2013-12-16 12:01:00,61.4,13.3,30.16,SW,218,3.5,3.5,15,0.00,-RA,OVC,0.00,WeatherDisplay:10.37,2013-12-16 19:01:00,
2013-12-16 12:06:00,61.6,13.4,30.16,SSW,209,6.0,6.0,15,0.00,-RA,OVC,0.00,WeatherDisplay:10.37,2013-12-16 19:06:00,
2013-12-16 12:11:00,61.6,13.4,30.16,SW,221,8.1,8.1,15,0.00,-RA,OVC,0.00,WeatherDisplay:10.37,2013-12-16 19:11:00,
2013-12-16 12:16:00,61.8,12.0,30.16,SW,221,3.5,3.5,14,0.00,-RA,OVC,0.00,WeatherDisplay:10.37,2013-12-16 19:16:00,
2013-12-16 12:21:00,62.3,14.0,30.16,WNW,303,3.5,3.5,15,0.00,-RA,OVC,0.00,WeatherDisplay:10.37,2013-12-16 19:21:00,
2013-12-16 12:26:00,62.9,12.9,30.16,NE,35,4.6,4.6,14,0.00,-RA,OVC,0.00,WeatherDisplay:10.37,2013-12-16 19:26:00,
2013-12-16 12:31:00,63.3,13.2,30.16,ENE,71,5.8,5.8,14,0.00,-RA,OVC,0.00,WeatherDisplay:10.37,2013-12-16 19:31:00,
2013-12-16 12:36:00,63.4,11.6,30.16,NW,326,3.5,3.5,13,0.00,-RA,OVC,0.00,WeatherDisplay:10.37,2013-12-16 19:36:00,
2013-12-16 12:41:00,63.6,10.0,30.16,SSE,155,11.5,11.5,12,0.00,-RA,OVC,0.00,WeatherDisplay:10.37,2013-12-16 19:41:00,
2013-12-16 12:46:00,63.3,11.5,30.16,NE,37,3.5,3.5,13,0.00,-RA,OVC,0.00,WeatherDisplay:10.37,2013-12-16 19:46:00,
2013-12-16 12:51:00,63.4,9.8,30.16,SSE,166,9.0,9.7,12,0.00,-RA,OVC,0.00,WeatherDisplay:10.37,2013-12-16 19:51:00,
2013-12-16 12:56:00,62.7,9.3,30.16,SE,128,12.7,12.7,12,0.00,-RA,OVC,0.00,WeatherDisplay:10.37,2013-12-16 19:56:00,
2013-12-16 13:01:00,62.4,9.0,30.16,SE,128,12.7,12.7,12,0.00,-RA,OVC,0.00,WeatherDisplay:10.37,2013-12-16 20:01:00,
2013-12-16 13:06:00,62.5,10.9,30.09,ESE,119,11.5,11.5,13,0.00,-RA,OVC,0.00,WeatherDisplay:10.37,2013-12-16 20:06:00,
2013-12-16 13:11:00,62.4,9.0,30.09,East,98,13.8,13.8,12,0.00,-RA,OVC,0.00,WeatherDisplay:10.37,2013-12-16 20:11:00,
2013-12-16 13:16:00,62.4,10.8,30.09,SSE,155,11.5,11.5,13,0.00,-RA,OVC,0.00,WeatherDisplay:10.37,2013-12-16 20:16:00,
2013-12-16 13:21:00,62.3,9.0,30.09,South,188,19.6,19.6,12,0.00,-RA,OVC,0.00,WeatherDisplay:10.37,2013-12-16 20:21:00,
2013-12-16 13:26:00,62.3,9.0,30.09,SE,127,8.1,8.1,12,0.00,-RA,OVC,0.00,WeatherDisplay:10.37,2013-12-16 20:26:00,
2013-12-16 13:31:00,62.4,9.0,30.09,WSW,238,11.5,11.5,12,0.00,-RA,OVC,0.00,WeatherDisplay:10.37,2013-12-16 20:31:00,
2013-12-16 13:36:00,62.2,8.9,30.09,SSW,211,16.1,16.1,12,0.00,-RA,OVC,0.00,WeatherDisplay:10.37,2013-12-16 20:36:00,
2013-12-16 13:41:00,62.0,8.7,30.09,SSW,211,11.5,11.5,12,0.00,-RA,OVC,0.00,WeatherDisplay:10.37,2013-12-16 20:41:00,
2013-12-16 13:46:00,61.9,10.4,30.09,SSE,168,12.7,12.7,13,0.00,-RA,OVC,0.00,WeatherDisplay:10.37,2013-12-16 20:46:00,
2013-12-16 13:51:00,61.7,10.3,30.09,SSW,192,13.8,13.8,13,0.00,-RA,OVC,0.00,WeatherDisplay:10.37,2013-12-16 20:51:00,
2013-12-16 13:56:00,61.6,10.2,30.09,South,187,6.9,6.9,13,0.00,-RA,OVC,0.00,WeatherDisplay:10.37,2013-12-16 20:56:00,
2013-12-16 14:01:00,61.8,10.4,30.09,SSW,192,15.0,15.0,13,0.00,-RA,OVC,0.00,WeatherDisplay:10.37,2013-12-16 21:01:00,
2013-12-16 14:06:00,61.7,10.3,30.09,South,186,11.5,11.5,13,0.00,-RA,OVC,0.00,WeatherDisplay:10.37,2013-12-16 21:06:00,
2013-12-16 14:11:00,61.7,8.5,30.09,ESE,121,6.9,6.9,12,0.00,-RA,OVC,0.00,WeatherDisplay:10.37,2013-12-16 21:11:00,
2013-12-16 14:16:00,61.9,8.6,30.09,South,184,12.0,12.0,12,0.00,-RA,OVC,0.00,WeatherDisplay:10.37,2013-12-16 21:16:00,
2013-12-16 14:21:00,61.7,8.5,30.09,South,178,10.4,10.4,12,0.00,-RA,OVC,0.00,WeatherDisplay:10.37,2013-12-16 21:21:00,
2013-12-16 14:26:00,61.4,8.3,30.09,SE,132,15.0,15.0,12,0.00,-RA,OVC,0.00,WeatherDisplay:10.37,2013-12-16 21:26:00,
2013-12-16 14:31:00,61.3,8.2,30.09,SE,129,8.1,8.1,12,0.00,-RA,OVC,0.00,WeatherDisplay:10.37,2013-12-16 21:31:00,
2013-12-16 14:36:00,61.2,8.1,30.10,SSE,166,16.1,16.1,12,0.00,-RA,OVC,0.00,WeatherDisplay:10.37,2013-12-16 21:36:00,
2013-12-16 14:41:00,60.9,7.9,30.10,ESE,111,19.6,19.6,12,0.00,-RA,OVC,0.00,WeatherDisplay:10.37,2013-12-16 21:41:00,
2013-12-16 14:46:00,60.8,7.8,30.10,SSW,213,3.5,3.5,12,0.00,-RA,OVC,0.00,WeatherDisplay:10.37,2013-12-16 21:46:00,
2013-12-16 14:51:00,60.9,7.9,30.10,SSE,159,6.9,7.7,12,0.00,-RA,OVC,0.00,WeatherDisplay:10.37,2013-12-16 21:51:00,
2013-12-16 14:56:00,60.8,7.8,30.10,ESE,121,16.1,16.1,12,0.00,-RA,OVC,0.00,WeatherDisplay:10.37,2013-12-16 21:56:00,
2013-12-16 15:01:00,60.7,7.7,30.09,SSE,163,10.4,10.4,12,0.00,-RA,OVC,0.00,WeatherDisplay:10.37,2013-12-16 22:01:00,
2013-12-16 15:06:00,60.5,7.5,30.09,South,184,17.3,17.3,12,0.00,-RA,OVC,0.00,WeatherDisplay:10.37,2013-12-16 22:06:00,
2013-12-16 15:11:00,60.2,7.3,30.09,WSW,258,17.3,17.3,12,0.00,-RA,OVC,0.00,WeatherDisplay:10.37,2013-12-16 22:11:00,
2013-12-16 15:16:00,60.2,7.3,30.09,South,189,8.1,8.1,12,0.00,-RA,OVC,0.00,WeatherDisplay:10.37,2013-12-16 22:16:00,
2013-12-16 15:21:00,60.3,7.4,30.09,SSW,202,6.9,8.1,12,0.00,-RA,OVC,0.00,WeatherDisplay:10.37,2013-12-16 22:21:00,
2013-12-16 15:26:00,60.3,7.4,30.09,South,174,6.9,6.9,12,0.00,-RA,OVC,0.00,WeatherDisplay:10.37,2013-12-16 22:26:00,
2013-12-16 15:31:00,60.2,7.3,30.09,SSE,160,11.5,11.5,12,0.00,-RA,OVC,0.00,WeatherDisplay:10.37,2013-12-16 22:31:00,
2013-12-16 15:36:00,60.1,7.2,30.09,SSE,155,6.9,6.9,12,0.00,-RA,OVC,0.00,WeatherDisplay:10.37,2013-12-16 22:36:00,
2013-12-16 15:41:00,60.0,7.2,30.09,SE,135,11.5,11.5,12,0.00,-RA,OVC,0.00,WeatherDisplay:10.37,2013-12-16 22:41:00,
2013-12-16 15:46:00,59.9,7.1,30.09,SSE,150,11.5,11.5,12,0.00,-RA,OVC,0.00,WeatherDisplay:10.37,2013-12-16 22:46:00,
2013-12-16 15:51:00,59.7,8.7,30.09,SSW,200,10.4,10.4,13,0.00,-RA,OVC,0.00,WeatherDisplay:10.37,2013-12-16 22:51:00,
2013-12-16 15:56:00,59.4,8.5,30.13,SW,233,6.9,6.9,13,0.00,-RA,OVC,0.00,WeatherDisplay:10.37,2013-12-16 22:56:00,
2013-12-16 16:01:00,59.1,9.9,30.13,SW,236,0.0,0.0,14,0.00,-RA,OVC,0.00,WeatherDisplay:10.37,2013-12-16 23:01:00,
2013-12-16 16:06:00,58.5,9.4,30.13,West,281,4.6,4.6,14,0.00,-RA,OVC,0.00,WeatherDisplay:10.37,2013-12-16 23:06:00,
2013-12-16 16:11:00,58.0,9.0,30.13,West,277,6.9,6.9,14,0.00,-RA,OVC,0.00,WeatherDisplay:10.37,2013-12-16 23:11:00,
2013-12-16 16:16:00,57.5,8.6,30.13,WSW,258,3.5,3.5,14,0.00,-RA,OVC,0.00,WeatherDisplay:10.37,2013-12-16 23:16:00,
2013-12-16 16:21:00,56.9,11.1,30.13,WSW,252,3.5,3.5,16,0.00,-RA,OVC,0.00,WeatherDisplay:10.37,2013-12-16 23:21:00,
2013-12-16 16:26:00,56.2,10.5,30.13,SW,215,3.5,3.5,16,0.00,-RA,OVC,0.00,WeatherDisplay:10.37,2013-12-16 23:26:00,
2013-12-16 16:31:00,55.3,9.8,30.13,SW,215,1.1,0.0,16,0.00,-RA,OVC,0.00,WeatherDisplay:10.37,2013-12-16 23:31:00,
2013-12-16 16:36:00,54.6,10.6,30.13,SW,215,0.0,0.0,17,0.00,-RA,OVC,0.00,WeatherDisplay:10.37,2013-12-16 23:36:00,
2013-12-16 16:41:00,53.9,11.3,30.13,SW,215,2.3,2.3,18,0.00,-RA,OVC,0.00,WeatherDisplay:10.37,2013-12-16 23:41:00,
2013-12-16 16:46:00,53.3,12.0,30.13,SW,215,0.0,0.0,19,0.00,-RA,OVC,0.00,WeatherDisplay:10.37,2013-12-16 23:46:00,
2013-12-16 16:51:00,52.9,11.7,30.13,South,190,4.6,4.6,19,0.00,-RA,OVC,0.00,WeatherDisplay:10.37,2013-12-16 23:51:00,
2013-12-16 16:56:00,52.7,11.5,30.13,South,190,1.1,1.1,19,0.00,-RA,OVC,0.00,WeatherDisplay:10.37,2013-12-16 23:56:00,
2013-12-16 17:01:00,52.4,11.3,30.13,South,190,2.3,2.3,19,0.00,-RA,OVC,0.00,WeatherDisplay:10.37,2013-12-17 00:01:00,
2013-12-16 17:06:00,52.2,12.3,30.13,South,190,0.0,0.0,20,0.00,-RA,OVC,0.00,WeatherDisplay:10.37,2013-12-17 00:06:00,
2013-12-16 17:11:00,51.9,13.1,30.13,South,190,0.0,0.0,21,0.00,-RA,OVC,0.00,WeatherDisplay:10.37,2013-12-17 00:11:00,
2013-12-16 17:16:00,51.4,12.7,30.13,South,190,1.1,0.0,21,0.00,-RA,OVC,0.00,WeatherDisplay:10.37,2013-12-17 00:16:00,
2013-12-16 17:21:00,50.6,14.1,30.13,South,190,0.0,0.0,23,0.00,-RA,OVC,0.00,WeatherDisplay:10.37,2013-12-17 00:21:00,
2013-12-16 17:26:00,49.8,13.4,30.13,South,190,0.0,0.0,23,0.00,-RA,OVC,0.00,WeatherDisplay:10.37,2013-12-17 00:26:00,
2013-12-16 17:31:00,49.2,13.9,30.13,South,190,0.0,0.2,24,0.00,-RA,OVC,0.00,WeatherDisplay:10.37,2013-12-17 00:31:00,
2013-12-16 17:36:00,48.9,12.7,30.13,South,188,3.5,3.5,23,0.00,-RA,OVC,0.00,WeatherDisplay:10.37,2013-12-17 00:36:00,
2013-12-16 17:41:00,47.9,15.5,30.13,South,188,2.3,2.3,27,0.00,-RA,OVC,0.00,WeatherDisplay:10.37,2013-12-17 00:41:00,
2013-12-16 17:46:00,47.0,14.7,30.13,South,187,1.1,0.0,27,0.00,-RA,OVC,0.00,WeatherDisplay:10.37,2013-12-17 00:46:00,
2013-12-16 17:51:00,46.3,14.1,30.13,South,187,2.3,0.0,27,0.00,-RA,OVC,0.00,WeatherDisplay:10.37,2013-12-17 00:51:00,
2013-12-16 17:56:00,45.9,12.0,30.13,South,187,1.1,1.1,25,0.00,-RA,OVC,0.00,WeatherDisplay:10.37,2013-12-17 00:56:00,
2013-12-16 18:01:00,46.0,12.1,30.13,South,187,2.3,2.3,25,0.00,-RA,OVC,0.00,WeatherDisplay:10.37,2013-12-17 01:01:00,
2013-12-16 18:06:00,46.4,13.3,30.13,South,187,1.1,1.5,26,0.00,-RA,OVC,0.00,WeatherDisplay:10.37,2013-12-17 01:06:00,
2013-12-16 18:11:00,47.0,12.9,30.13,SSE,151,9.2,9.2,25,0.00,-RA,OVC,0.00,WeatherDisplay:10.37,2013-12-17 01:11:00,
2013-12-16 18:16:00,48.7,11.5,30.13,South,182,5.0,5.0,22,0.00,-RA,OVC,0.00,WeatherDisplay:10.37,2013-12-17 01:16:00,
2013-12-16 18:21:00,50.2,9.5,30.13,SSE,153,5.8,5.8,19,0.00,-RA,OVC,0.00,WeatherDisplay:10.37,2013-12-17 01:21:00,
2013-12-16 18:25:00,51.0,10.1,30.13,SE,140,9.2,9.2,19,0.00,-RA,OVC,0.00,WeatherDisplay:10.37,2013-12-17 01:25:00,
2013-12-16 18:30:00,51.5,10.5,30.13,SE,139,3.5,3.5,19,0.00,-RA,OVC,0.00,WeatherDisplay:10.37,2013-12-17 01:30:00,
2013-12-16 18:35:00,51.5,9.3,30.13,SE,142,4.6,4.6,18,0.00,-RA,OVC,0.00,WeatherDisplay:10.37,2013-12-17 01:35:00,
2013-12-16 18:40:00,51.8,9.6,30.13,ESE,118,9.2,9.2,18,0.00,-RA,OVC,0.00,WeatherDisplay:10.37,2013-12-17 01:40:00,
2013-12-16 18:45:00,51.7,9.5,30.13,South,188,6.9,6.9,18,0.00,-RA,OVC,0.00,WeatherDisplay:10.37,2013-12-17 01:45:00,
2013-12-16 18:50:00,51.6,9.4,30.13,South,175,9.2,9.2,18,0.00,-RA,OVC,0.00,WeatherDisplay:10.37,2013-12-17 01:50:00,
2013-12-16 18:55:00,52.5,8.9,30.17,ESE,120,18.4,18.4,17,0.00,-RA,OVC,0.00,WeatherDisplay:10.37,2013-12-17 01:55:00,
2013-12-16 19:00:00,53.7,8.5,30.17,SE,144,16.1,16.1,16,0.00,-RA,OVC,0.00,WeatherDisplay:10.37,2013-12-17 02:00:00,
2013-12-16 19:05:00,54.3,9.0,30.17,East,84,20.7,20.7,16,0.00,-RA,OVC,0.00,WeatherDisplay:10.37,2013-12-17 02:05:00,
2013-12-16 19:10:00,54.5,7.7,30.17,ESE,121,19.6,19.6,15,0.00,-RA,OVC,0.00,WeatherDisplay:10.37,2013-12-17 02:10:00,
2013-12-16 19:15:00,54.5,7.7,30.17,ESE,119,27.6,27.6,15,0.00,-RA,OVC,0.00,WeatherDisplay:10.37,2013-12-17 02:15:00,
2013-12-16 19:20:00,54.5,7.7,30.17,ESE,122,11.5,11.5,15,0.00,-RA,OVC,0.00,WeatherDisplay:10.37,2013-12-17 02:20:00,
2013-12-16 19:25:00,54.2,8.9,30.17,ESE,121,20.0,20.0,16,0.00,-RA,OVC,0.00,WeatherDisplay:10.37,2013-12-17 02:25:00,
2013-12-16 19:30:00,54.0,7.3,30.17,East,96,6.9,8.7,15,0.00,-RA,OVC,0.00,WeatherDisplay:10.37,2013-12-17 02:30:00,
2013-12-16 19:35:00,54.0,7.3,30.17,SSE,163,11.5,11.5,15,0.00,-RA,OVC,0.00,WeatherDisplay:10.37,2013-12-17 02:35:00,
2013-12-16 19:40:00,53.9,7.2,30.17,SSE,150,12.7,12.7,15,0.00,-RA,OVC,0.00,WeatherDisplay:10.37,2013-12-17 02:40:00,
2013-12-16 19:45:00,53.7,7.1,30.17,SE,142,11.5,11.5,15,0.00,-RA,OVC,0.00,WeatherDisplay:10.37,2013-12-17 02:45:00,
2013-12-16 19:50:00,53.7,7.1,30.17,SE,142,4.6,8.2,15,0.00,-RA,OVC,0.00,WeatherDisplay:10.37,2013-12-17 02:50:00,
2013-12-16 19:55:00,53.7,7.1,30.17,SE,134,6.9,6.9,15,0.00,-RA,OVC,0.00,WeatherDisplay:10.37,2013-12-17 02:55:00,
2013-12-16 20:00:00,53.5,6.9,30.17,SE,136,11.5,11.5,15,0.00,-RA,OVC,0.00,WeatherDisplay:10.37,2013-12-17 03:00:00,
2013-12-16 20:05:00,53.2,8.1,30.17,South,177,9.2,9.2,16,0.00,-RA,OVC,0.00,WeatherDisplay:10.37,2013-12-17 03:05:00,
2013-12-16 20:10:00,52.9,7.8,30.17,SE,146,1.1,1.1,16,0.00,-RA,OVC,0.00,WeatherDisplay:10.37,2013-12-17 03:10:00,
2013-12-16 20:15:00,52.3,7.4,30.17,SSE,155,3.5,3.5,16,0.00,-RA,OVC,0.00,WeatherDisplay:10.37,2013-12-17 03:15:00,
2013-12-16 20:20:00,51.7,8.2,30.17,SSE,166,3.5,3.5,17,0.00,-RA,OVC,0.00,WeatherDisplay:10.37,2013-12-17 03:20:00,
2013-12-16 20:25:00,51.7,6.9,30.17,ESE,121,5.8,5.8,16,0.00,-RA,OVC,0.00,WeatherDisplay:10.37,2013-12-17 03:25:00,
2013-12-16 20:30:00,51.8,6.9,30.17,South,174,3.5,3.5,16,0.00,-RA,OVC,0.00,WeatherDisplay:10.37,2013-12-17 03:30:00,
2013-12-16 20:35:00,52.1,7.2,30.17,SSE,155,4.0,4.0,16,0.00,-RA,OVC,0.00,WeatherDisplay:10.37,2013-12-17 03:35:00,
2013-12-16 20:40:00,51.9,8.4,30.17,South,169,3.5,3.5,17,0.00,-RA,OVC,0.00,WeatherDisplay:10.37,2013-12-17 03:40:00,
2013-12-16 20:45:00,51.2,7.8,30.17,South,169,0.0,0.0,17,0.00,-RA,OVC,0.00,WeatherDisplay:10.37,2013-12-17 03:45:00,
2013-12-16 20:50:00,50.5,7.2,30.17,South,169,0.0,0.0,17,0.00,-RA,OVC,0.00,WeatherDisplay:10.37,2013-12-17 03:50:00,
2013-12-16 20:55:00,49.6,9.0,30.17,South,169,1.1,1.1,19,0.00,-RA,OVC,0.00,WeatherDisplay:10.37,2013-12-17 03:55:00,
2013-12-16 21:00:00,48.2,10.0,30.17,ENE,59,3.5,3.5,21,0.00,-RA,OVC,0.00,WeatherDisplay:10.37,2013-12-17 04:00:00,
2013-12-16 21:05:00,47.0,12.9,30.17,NE,41,4.6,4.6,25,0.00,-RA,OVC,0.00,WeatherDisplay:10.37,2013-12-17 04:05:00,
2013-12-16 21:10:00,46.3,13.2,30.17,NE,41,3.5,3.5,26,0.00,-RA,OVC,0.00,WeatherDisplay:10.37,2013-12-17 04:10:00,
2013-12-16 21:15:00,45.6,14.3,30.17,ENE,57,3.5,3.5,28,0.00,-RA,OVC,0.00,WeatherDisplay:10.37,2013-12-17 04:15:00,
2013-12-16 21:20:00,44.9,14.5,30.17,NE,56,1.1,1.7,29,0.00,-RA,OVC,0.00,WeatherDisplay:10.37,2013-12-17 04:20:00,
2013-12-16 21:25:00,44.2,14.7,30.17,NE,56,0.0,0.0,30,0.00,-RA,OVC,0.00,WeatherDisplay:10.37,2013-12-17 04:25:00,
2013-12-16 21:30:00,43.6,14.9,30.17,NE,56,0.0,0.0,31,0.00,-RA,OVC,0.00,WeatherDisplay:10.37,2013-12-17 04:30:00,
2013-12-16 21:35:00,43.1,14.5,30.17,NE,56,2.3,2.3,31,0.00,-RA,OVC,0.00,WeatherDisplay:10.37,2013-12-17 04:35:00,
2013-12-16 21:40:00,42.7,14.8,30.17,NE,55,3.5,3.5,32,0.00,-RA,OVC,0.00,WeatherDisplay:10.37,2013-12-17 04:40:00,
2013-12-16 21:45:00,42.3,15.2,30.17,NE,55,3.5,3.5,33,0.00,-RA,OVC,0.00,WeatherDisplay:10.37,2013-12-17 04:45:00,
2013-12-16 21:50:00,42.0,15.6,30.17,NE,55,3.5,3.5,34,0.00,-RA,OVC,0.00,WeatherDisplay:10.37,2013-12-17 04:50:00,
2013-12-16 21:55:00,41.8,15.4,30.17,NE,55,4.0,0.0,34,0.00,-RA,OVC,0.00,WeatherDisplay:10.37,2013-12-17 04:55:00,
2013-12-16 22:00:00,41.3,16.3,30.17,NNE,18,2.3,0.0,36,0.00,-RA,OVC,0.00,WeatherDisplay:10.37,2013-12-17 05:00:00,
2013-12-16 22:01:00,41.3,16.3,30.17,NNE,18,2.3,0.0,36,0.00,-RA,OVC,0.00,WeatherDisplay:10.37,2013-12-17 05:01:00,
2013-12-16 22:06:00,40.8,15.9,30.17,NNE,30,3.5,3.5,36,0.00,-RA,OVC,0.00,WeatherDisplay:10.37,2013-12-17 05:06:00,
2013-12-16 22:11:00,40.9,15.3,30.17,NE,49,2.3,2.3,35,0.00,-RA,OVC,0.00,WeatherDisplay:10.37,2013-12-17 05:11:00,
2013-12-16 22:16:00,41.3,15.7,30.20,NE,49,1.1,0.0,35,0.00,-RA,OVC,0.00,WeatherDisplay:10.37,2013-12-17 05:16:00,
2013-12-16 22:21:00,41.2,15.6,30.20,NE,49,1.1,1.1,35,0.00,-RA,OVC,0.00,WeatherDisplay:10.37,2013-12-17 05:21:00,
2013-12-16 22:26:00,41.0,16.0,30.20,ESE,102,3.5,3.5,36,0.00,-RA,OVC,0.00,WeatherDisplay:10.37,2013-12-17 05:26:00,
2013-12-16 22:31:00,40.2,16.0,30.20,East,101,1.1,1.1,37,0.00,-RA,OVC,0.00,WeatherDisplay:10.37,2013-12-17 05:31:00,
2013-12-16 22:36:00,39.5,16.0,30.20,East,99,2.3,2.3,38,0.00,-RA,OVC,0.00,WeatherDisplay:10.37,2013-12-17 05:36:00,
2013-12-16 22:41:00,38.9,16.0,30.20,East,99,0.0,0.0,39,0.00,-RA,OVC,0.00,WeatherDisplay:10.37,2013-12-17 05:41:00,
2013-12-16 22:46:00,38.5,15.7,30.20,East,99,0.0,0.0,39,0.00,-RA,OVC,0.00,WeatherDisplay:10.37,2013-12-17 05:46:00,
2013-12-16 22:51:00,38.1,15.9,30.20,East,99,1.0,1.0,40,0.00,-RA,OVC,0.00,WeatherDisplay:10.37,2013-12-17 05:51:00,
2013-12-16 22:56:00,37.5,15.9,30.20,East,99,0.0,0.0,41,0.00,-RA,OVC,0.00,WeatherDisplay:10.37,2013-12-17 05:56:00,
2013-12-16 23:01:00,37.4,16.4,30.20,East,99,2.3,2.3,42,0.00,-RA,OVC,0.00,WeatherDisplay:10.37,2013-12-17 06:01:00,
2013-12-16 23:06:00,37.3,16.3,30.20,East,99,3.5,3.5,42,0.00,-RA,OVC,0.00,WeatherDisplay:10.37,2013-12-17 06:06:00,
2013-12-16 23:11:00,37.2,16.2,30.20,East,99,2.3,2.3,42,0.00,-RA,OVC,0.00,WeatherDisplay:10.37,2013-12-17 06:11:00,
2013-12-16 23:16:00,37.0,16.5,30.20,East,99,0.0,0.0,43,0.00,-RA,OVC,0.00,WeatherDisplay:10.37,2013-12-17 06:16:00,
2013-12-16 23:21:00,36.6,16.2,30.20,East,99,2.3,2.3,43,0.00,-RA,OVC,0.00,WeatherDisplay:10.37,2013-12-17 06:21:00,
2013-12-16 23:26:00,36.4,16.5,30.20,East,99,0.0,0.0,44,0.00,-RA,OVC,0.00,WeatherDisplay:10.37,2013-12-17 06:26:00,
2013-12-16 23:31:00,36.2,16.4,30.20,East,99,0.0,0.0,44,0.00,-RA,OVC,0.00,WeatherDisplay:10.37,2013-12-17 06:31:00,
2013-12-16 23:36:00,35.9,16.6,30.20,East,99,0.0,0.0,45,0.00,-RA,OVC,0.00,WeatherDisplay:10.37,2013-12-17 06:36:00,
2013-12-16 23:41:00,35.5,15.7,30.20,East,99,2.3,0.0,44,0.00,-RA,OVC,0.00,WeatherDisplay:10.37,2013-12-17 06:41:00,
2013-12-16 23:46:00,35.3,16.6,30.20,East,99,3.5,3.5,46,0.00,-RA,OVC,0.00,WeatherDisplay:10.37,2013-12-17 06:46:00,
2013-12-16 23:51:00,35.0,16.3,30.20,East,99,2.3,0.0,46,0.00,-RA,OVC,0.00,WeatherDisplay:10.37,2013-12-17 06:51:00,
2013-12-16 23:56:00,34.6,16.9,30.20,East,99,1.1,1.1,48,0.00,-RA,OVC,0.00,WeatherDisplay:10.37,2013-12-17 06:56:00,